Time;durP1;ratioP1;P1;durP2;ratioP2;P2;SDS_P1;SDS_P2;PMS_P1;PMS_P2;Temp;Humidity;BMP_temperature;BMP_pressure;BME280_temperature;BME280_humidity;BME280_pressure;Samples;Min_cycle;Max_cycle;Signal;HPM_P1;HPM_P2
2022/01/07 00:02:06;;;;;;;9.45;4.88;;;3.50;99.90;;;;;;5093101;28;20036;-80
2022/01/07 00:04:35;;;;;;;7.97;4.18;;;3.50;99.90;;;;;;5092701;28;20093;-79
2022/01/07 00:07:02;;;;;;;14.63;6.22;;;3.50;99.90;;;;;;5075512;28;20036;-78
2022/01/07 00:09:28;;;;;;;14.32;5.47;;;3.50;99.90;;;;;;5093082;28;20040;-80
2022/01/07 00:11:53;;;;;;;9.63;4.07;;;3.50;99.90;;;;;;5092106;28;20044;-79
2022/01/07 00:14:19;;;;;;;12.38;5.07;;;3.50;99.90;;;;;;5092230;28;20627;-79
2022/01/07 00:16:45;;;;;;;11.35;5.60;;;3.50;99.90;;;;;;5092268;28;20131;-79
2022/01/07 00:19:10;;;;;;;9.88;5.25;;;3.40;99.90;;;;;;5076031;28;20028;-79
2022/01/07 00:21:36;;;;;;;13.65;4.70;;;3.50;99.90;;;;;;5092301;28;20097;-79
2022/01/07 00:24:02;;;;;;;15.27;5.75;;;3.50;99.90;;;;;;5093684;28;20602;-79
2022/01/07 00:26:27;;;;;;;18.60;6.53;;;3.50;99.90;;;;;;5091518;28;20115;-79
2022/01/07 00:28:53;;;;;;;11.50;5.55;;;3.50;99.90;;;;;;5091895;28;20044;-79
2022/01/07 00:31:18;;;;;;;10.38;4.32;;;3.50;99.90;;;;;;5075047;28;20483;-80
2022/01/07 00:33:44;;;;;;;9.65;4.45;;;3.50;99.90;;;;;;5092413;28;20046;-79
2022/01/07 00:36:10;;;;;;;9.45;4.18;;;3.50;99.90;;;;;;5092254;28;20044;-80
2022/01/07 00:38:36;;;;;;;11.27;4.45;;;3.50;99.90;;;;;;5093311;28;20040;-80
2022/01/07 00:41:03;;;;;;;14.23;4.30;;;3.60;99.90;;;;;;5074938;28;20040;-80
2022/01/07 00:43:28;;;;;;;9.40;4.57;;;3.50;99.90;;;;;;5092112;28;20418;-79
2022/01/07 00:45:54;;;;;;;7.30;4.32;;;3.50;99.90;;;;;;5092517;28;20040;-79
2022/01/07 00:48:20;;;;;;;13.30;4.90;;;3.50;99.90;;;;;;5091643;28;20359;-80
2022/01/07 00:50:45;;;;;;;9.55;4.35;;;3.50;99.90;;;;;;5092226;28;20051;-79
2022/01/07 00:53:11;;;;;;;11.45;3.92;;;3.50;99.90;;;;;;5091476;28;20047;-79
2022/01/07 00:55:37;;;;;;;9.10;4.05;;;3.50;99.90;;;;;;5091487;28;20482;-79
2022/01/07 00:58:04;;;;;;;7.80;3.70;;;3.50;99.90;;;;;;5091653;28;20497;-79
2022/01/07 01:00:29;;;;;;;11.53;3.87;;;3.50;99.90;;;;;;5093559;28;20093;-80
2022/01/07 01:02:56;;;;;;;9.82;4.18;;;3.50;99.90;;;;;;5094155;28;20494;-80
2022/01/07 01:05:23;;;;;;;9.07;3.80;;;3.40;99.90;;;;;;5098085;28;20546;-82
2022/01/07 01:07:49;;;;;;;10.90;4.15;;;3.40;99.90;;;;;;5096646;28;20051;-82
2022/01/07 01:10:20;;;;;;;9.98;4.00;;;3.40;99.90;;;;;;5099458;28;20032;-83
2022/01/07 01:12:47;;;;;;;14.77;5.53;;;3.30;99.90;;;;;;5097327;28;20036;-83
2022/01/07 01:15:15;;;;;;;13.00;5.10;;;3.20;99.90;;;;;;5098986;28;20456;-83
2022/01/07 01:17:41;;;;;;;13.93;4.73;;;3.20;99.90;;;;;;5095265;28;20036;-84
2022/01/07 01:20:09;;;;;;;14.43;3.93;;;3.10;99.90;;;;;;5094873;28;20032;-82
2022/01/07 01:22:35;;;;;;;8.77;4.57;;;3.00;99.90;;;;;;5095923;28;20458;-83
2022/01/07 01:25:01;;;;;;;11.50;5.30;;;3.00;99.90;;;;;;5080699;28;20071;-83
2022/01/07 01:27:27;;;;;;;14.50;5.87;;;3.00;99.90;;;;;;5079081;28;20032;-82
2022/01/07 01:29:52;;;;;;;9.20;5.03;;;2.90;99.90;;;;;;5096345;28;20089;-82
2022/01/07 01:32:18;;;;;;;10.77;4.50;;;2.90;99.90;;;;;;5095731;28;20043;-83
2022/01/07 01:34:44;;;;;;;10.10;5.07;;;2.90;99.90;;;;;;5095158;28;20036;-82
2022/01/07 01:37:09;;;;;;;10.70;5.67;;;2.80;99.90;;;;;;5095801;28;20043;-82
2022/01/07 01:39:35;;;;;;;18.40;5.00;;;2.80;99.90;;;;;;5094500;28;20036;-82
2022/01/07 01:42:01;;;;;;;13.43;6.43;;;2.80;99.90;;;;;;5096630;28;20059;-81
2022/01/07 01:44:27;;;;;;;13.00;5.60;;;2.70;99.90;;;;;;5094459;28;20042;-82
2022/01/07 01:46:53;;;;;;;13.20;5.40;;;2.60;99.90;;;;;;5096175;28;20044;-82
2022/01/07 01:49:18;;;;;;;11.90;5.37;;;2.70;99.90;;;;;;5094748;28;20537;-82
2022/01/07 01:51:45;;;;;;;10.53;5.43;;;2.70;99.90;;;;;;5096961;28;20118;-83
2022/01/07 01:54:11;;;;;;;9.30;4.50;;;2.70;99.90;;;;;;5094688;28;20453;-81
2022/01/07 01:56:36;;;;;;;12.33;6.53;;;2.60;99.90;;;;;;5097203;28;20036;-83
2022/01/07 01:59:03;;;;;;;11.00;5.63;;;2.50;99.90;;;;;;5094199;28;20032;-80
2022/01/07 02:01:28;;;;;;;15.23;7.37;;;2.60;99.90;;;;;;5079427;28;20410;-82
2022/01/07 02:03:54;;;;;;;10.80;5.60;;;2.60;99.90;;;;;;5093449;28;20039;-82
2022/01/07 02:06:20;;;;;;;10.83;4.87;;;2.60;99.90;;;;;;5095354;28;20036;-82
2022/01/07 02:08:46;;;;;;;14.53;7.87;;;2.50;99.90;;;;;;5093616;28;20040;-81
2022/01/07 02:11:12;;;;;;;11.20;5.20;;;2.60;99.90;;;;;;5094718;28;20517;-82
2022/01/07 02:13:38;;;;;;;12.63;6.27;;;2.60;99.90;;;;;;5093507;28;20044;-82
2022/01/07 02:16:03;;;;;;;11.87;6.77;;;2.60;99.90;;;;;;5077733;28;20040;-81
2022/01/07 02:18:29;;;;;;;15.07;6.97;;;2.50;99.90;;;;;;5080944;28;20558;-82
2022/01/07 02:20:55;;;;;;;8.03;5.10;;;2.50;99.90;;;;;;5095326;28;20078;-82
2022/01/07 02:23:21;;;;;;;11.63;5.77;;;2.60;99.90;;;;;;5097909;28;20044;-83
2022/01/07 02:25:47;;;;;;;19.40;8.73;;;2.60;99.90;;;;;;5096096;28;20040;-81
2022/01/07 02:28:13;;;;;;;8.53;5.73;;;2.50;99.90;;;;;;5099493;28;20028;-83
2022/01/07 02:30:39;;;;;;;15.37;7.67;;;2.50;99.90;;;;;;5100355;28;20032;-81
2022/01/07 02:33:05;;;;;;;14.30;8.37;;;2.50;99.90;;;;;;5085753;28;20089;-80
2022/01/07 02:35:33;;;;;;;14.27;6.60;;;2.50;99.90;;;;;;5099643;28;20095;-81
2022/01/07 02:37:59;;;;;;;13.07;6.97;;;2.50;99.90;;;;;;5101335;28;20119;-81
2022/01/07 02:40:26;;;;;;;10.93;6.50;;;2.50;99.90;;;;;;5083200;28;20081;-83
2022/01/07 02:42:52;;;;;;;14.17;7.97;;;2.50;99.90;;;;;;5101105;28;20028;-82
2022/01/07 02:45:17;;;;;;;15.37;7.43;;;2.40;99.90;;;;;;5099822;28;20382;-83
2022/01/07 02:47:55;;;;;;;15.13;7.87;;;2.40;99.90;;;;;;5100981;28;20043;-83
2022/01/07 02:50:26;;;;;;;14.87;8.67;;;2.50;99.90;;;;;;5099945;28;20062;-83
2022/01/07 02:52:51;;;;;;;19.27;9.33;;;2.50;99.90;;;;;;5100966;28;20059;-83
2022/01/07 02:55:18;;;;;;;14.03;9.37;;;2.50;99.90;;;;;;5100262;28;20482;-82
2022/01/07 02:57:43;;;;;;;13.80;7.60;;;2.40;99.90;;;;;;5082325;28;20115;-82
2022/01/07 03:00:10;;;;;;;12.70;8.17;;;2.40;99.90;;;;;;5099055;28;20120;-83
2022/01/07 03:02:35;;;;;;;15.77;9.63;;;2.40;99.90;;;;;;5097477;28;20040;-82
2022/01/07 03:05:01;;;;;;;17.53;9.53;;;2.40;99.90;;;;;;5099180;28;20379;-83
2022/01/07 03:07:29;;;;;;;16.50;9.87;;;2.40;99.90;;;;;;5096945;28;20035;-82
2022/01/07 03:09:54;;;;;;;15.70;9.40;;;2.40;99.90;;;;;;5098503;28;20071;-82
2022/01/07 03:12:20;;;;;;;19.47;8.90;;;2.30;99.90;;;;;;5096995;28;20086;-81
2022/01/07 03:14:48;;;;;;;11.50;9.27;;;2.30;99.90;;;;;;5098443;28;20040;-82
2022/01/07 03:17:14;;;;;;;18.83;9.87;;;2.40;99.90;;;;;;5095937;28;20047;-83
2022/01/07 03:19:39;;;;;;;14.13;9.47;;;2.30;99.90;;;;;;5098767;28;20060;-83
2022/01/07 03:22:05;;;;;;;18.93;10.63;;;2.40;99.90;;;;;;5096468;28;20035;-82
2022/01/07 03:24:31;;;;;;;19.03;10.13;;;2.30;99.90;;;;;;5097434;28;20543;-82
2022/01/07 03:26:56;;;;;;;17.63;9.07;;;2.30;99.90;;;;;;5095052;28;20043;-82
2022/01/07 03:29:22;;;;;;;17.83;10.57;;;2.30;99.90;;;;;;5098461;28;20039;-82
2022/01/07 03:31:47;;;;;;;17.43;10.83;;;2.30;99.90;;;;;;5096029;28;20137;-83
2022/01/07 03:34:13;;;;;;;17.97;10.47;;;2.40;99.90;;;;;;5096945;28;20043;-83
2022/01/07 03:36:40;;;;;;;16.43;9.97;;;2.30;99.90;;;;;;5078128;28;20043;-82
2022/01/07 03:39:06;;;;;;;18.77;12.43;;;2.30;99.90;;;;;;5078926;28;20044;-82
2022/01/07 03:41:31;;;;;;;17.33;10.73;;;2.40;99.90;;;;;;5078742;28;20454;-83
2022/01/07 03:43:57;;;;;;;15.23;10.37;;;2.30;99.90;;;;;;5096689;28;20047;-83
2022/01/07 03:46:22;;;;;;;16.57;11.07;;;2.40;99.90;;;;;;5095342;28;20044;-84
2022/01/07 03:48:48;;;;;;;24.63;11.43;;;2.40;99.90;;;;;;5095566;28;20071;-82
2022/01/07 03:51:14;;;;;;;12.80;8.87;;;2.40;99.90;;;;;;5095700;28;20328;-82
2022/01/07 03:53:39;;;;;;;15.90;10.67;;;2.40;99.90;;;;;;5077919;28;20093;-83
2022/01/07 03:56:05;;;;;;;20.80;11.77;;;2.40;99.90;;;;;;5095762;28;20092;-82
2022/01/07 03:58:30;;;;;;;15.70;11.00;;;2.30;99.90;;;;;;5094582;28;20398;-81
2022/01/07 04:00:56;;;;;;;23.47;12.13;;;2.40;99.90;;;;;;5096153;28;20491;-83
2022/01/07 04:03:22;;;;;;;18.27;12.17;;;2.50;99.90;;;;;;5087831;28;20073;-83
2022/01/07 04:05:48;;;;;;;17.83;11.63;;;2.40;99.90;;;;;;5078216;28;20530;-83
2022/01/07 04:08:13;;;;;;;14.47;10.20;;;2.40;99.90;;;;;;5093395;28;20036;-83
2022/01/07 04:10:40;;;;;;;15.80;11.40;;;2.50;99.90;;;;;;5095937;28;20040;-82
2022/01/07 04:13:06;;;;;;;18.17;12.83;;;2.40;99.90;;;;;;5093311;28;20050;-83
2022/01/07 04:15:32;;;;;;;17.37;11.63;;;2.50;99.90;;;;;;5095320;28;20028;-82
2022/01/07 04:17:57;;;;;;;19.30;11.67;;;2.60;99.90;;;;;;5094082;28;20035;-82
2022/01/07 04:20:26;;;;;;;20.10;12.10;;;2.50;99.90;;;;;;5095516;28;20046;-82
2022/01/07 04:22:52;;;;;;;19.17;11.37;;;2.50;99.90;;;;;;5094412;28;20122;-82
2022/01/07 04:25:19;;;;;;;14.57;10.03;;;2.50;99.90;;;;;;5095723;28;20161;-84
2022/01/07 04:27:53;;;;;;;16.90;12.40;;;2.60;99.90;;;;;;5077301;28;20104;-82
2022/01/07 04:30:21;;;;;;;15.87;9.67;;;2.60;99.90;;;;;;5074570;28;20450;-83
2022/01/07 04:32:48;;;;;;;14.63;9.77;;;2.60;99.90;;;;;;5074778;28;20040;-82
2022/01/07 04:35:15;;;;;;;18.07;11.47;;;2.50;99.90;;;;;;5077016;28;20521;-84
2022/01/07 04:37:41;;;;;;;18.50;13.00;;;2.60;99.90;;;;;;5093426;28;20490;-82
2022/01/07 04:40:10;;;;;;;20.93;11.57;;;2.60;99.90;;;;;;5077111;28;20032;-84
2022/01/07 04:42:36;;;;;;;19.97;11.33;;;2.60;99.90;;;;;;5077306;28;20044;-83
2022/01/07 04:45:03;;;;;;;14.73;8.93;;;2.70;99.90;;;;;;5094551;28;20036;-82
2022/01/07 04:47:29;;;;;;;18.50;10.73;;;2.60;99.90;;;;;;5078027;28;20047;-82
2022/01/07 04:49:55;;;;;;;20.80;10.87;;;2.60;99.90;;;;;;5093675;28;20469;-82
2022/01/07 04:52:21;;;;;;;14.57;11.00;;;2.50;99.90;;;;;;5094825;28;20506;-82
2022/01/07 04:54:47;;;;;;;19.43;10.47;;;2.60;99.90;;;;;;5078466;28;20064;-83
2022/01/07 04:57:12;;;;;;;18.43;11.63;;;2.60;99.90;;;;;;5078388;28;20047;-83
2022/01/07 04:59:39;;;;;;;19.93;12.70;;;2.60;99.90;;;;;;5076939;28;20040;-83
2022/01/07 05:02:05;;;;;;;16.93;11.27;;;2.70;99.90;;;;;;5077769;28;20070;-83
2022/01/07 05:04:30;;;;;;;17.37;10.73;;;2.70;99.90;;;;;;5077071;28;20040;-84
2022/01/07 05:06:56;;;;;;;14.77;9.13;;;2.70;99.90;;;;;;5094542;28;20051;-84
2022/01/07 05:09:21;;;;;;;21.67;11.47;;;2.60;99.90;;;;;;5094225;28;20388;-83
2022/01/07 05:11:49;;;;;;;14.17;9.93;;;2.60;99.90;;;;;;5094508;28;20498;-84
2022/01/07 05:14:15;;;;;;;16.03;10.07;;;2.70;99.90;;;;;;5076091;28;20093;-84
2022/01/07 05:16:41;;;;;;;15.63;9.60;;;2.70;99.90;;;;;;5075785;28;20032;-81
2022/01/07 05:19:07;;;;;;;16.87;10.50;;;2.80;99.90;;;;;;5093467;28;20123;-82
2022/01/07 05:21:33;;;;;;;16.67;9.07;;;2.70;99.90;;;;;;5093112;28;20028;-83
2022/01/07 05:23:58;;;;;;;14.13;9.67;;;2.70;99.90;;;;;;5076068;28;20054;-84
2022/01/07 05:26:24;;;;;;;14.87;9.57;;;2.60;99.90;;;;;;5093378;28;20044;-83
2022/01/07 05:28:52;;;;;;;14.63;9.93;;;2.70;99.90;;;;;;5092861;28;20509;-83
2022/01/07 05:31:19;;;;;;;18.30;11.80;;;2.90;99.90;;;;;;5092401;28;20036;-83
2022/01/07 05:33:45;;;;;;;16.13;10.83;;;2.80;99.90;;;;;;5075956;28;20040;-83
2022/01/07 05:36:11;;;;;;;19.30;11.10;;;2.70;99.90;;;;;;5091986;28;20525;-83
2022/01/07 05:38:37;;;;;;;16.23;9.27;;;2.60;99.90;;;;;;5075907;28;20039;-84
2022/01/07 05:41:02;;;;;;;13.77;9.53;;;2.80;99.90;;;;;;5075436;28;20470;-83
2022/01/07 05:43:28;;;;;;;13.23;9.80;;;2.70;99.90;;;;;;5076745;28;20032;-83
2022/01/07 05:45:54;;;;;;;13.30;8.97;;;2.70;99.90;;;;;;5075398;28;20596;-83
2022/01/07 05:48:20;;;;;;;12.57;9.67;;;2.70;99.90;;;;;;5099854;28;20047;-83
2022/01/07 05:50:46;;;;;;;13.63;9.40;;;2.80;99.90;;;;;;5100142;28;20039;-83
2022/01/07 05:53:12;;;;;;;12.00;8.10;;;2.70;99.90;;;;;;5100402;28;20529;-82
2022/01/07 05:55:37;;;;;;;15.63;9.07;;;2.80;99.90;;;;;;5101244;28;20092;-85
2022/01/07 05:58:03;;;;;;;13.03;8.17;;;2.80;99.90;;;;;;5101044;28;20052;-83
2022/01/07 06:00:29;;;;;;;14.47;9.20;;;2.80;99.90;;;;;;5097486;28;20036;-82
2022/01/07 06:02:54;;;;;;;12.00;8.13;;;2.80;99.90;;;;;;5096908;28;20115;-81
2022/01/07 06:05:20;;;;;;;12.83;8.80;;;2.80;99.90;;;;;;5096741;28;20032;-82
2022/01/07 06:07:46;;;;;;;12.97;8.63;;;2.90;99.90;;;;;;5097177;28;20069;-82
2022/01/07 06:10:11;;;;;;;12.67;7.93;;;2.90;99.90;;;;;;5079786;28;20111;-82
2022/01/07 06:12:38;;;;;;;12.93;9.03;;;2.90;99.90;;;;;;5096878;28;20089;-82
2022/01/07 06:15:04;;;;;;;18.47;8.47;;;2.80;99.90;;;;;;5080040;28;20384;-82
2022/01/07 06:17:30;;;;;;;12.83;7.60;;;2.90;99.90;;;;;;5096838;28;20036;-82
2022/01/07 06:19:56;;;;;;;13.40;8.23;;;2.80;99.90;;;;;;5097078;28;20043;-82
2022/01/07 06:22:21;;;;;;;15.63;9.17;;;2.90;99.90;;;;;;5079791;28;20123;-82
2022/01/07 06:24:47;;;;;;;10.77;6.20;;;3.00;99.90;;;;;;5096907;28;20047;-81
2022/01/07 06:27:12;;;;;;;9.73;7.87;;;3.00;99.90;;;;;;5096121;28;20036;-81
2022/01/07 06:29:39;;;;;;;12.40;7.87;;;2.90;99.90;;;;;;5080957;28;20093;-83
2022/01/07 06:32:05;;;;;;;12.00;7.33;;;2.90;99.90;;;;;;5096891;28;20521;-82
2022/01/07 06:34:31;;;;;;;11.87;7.47;;;3.00;99.90;;;;;;5097363;28;20040;-81
2022/01/07 06:36:58;;;;;;;11.23;6.97;;;2.90;99.90;;;;;;5097702;28;20070;-82
2022/01/07 06:39:24;;;;;;;13.30;6.77;;;3.00;99.90;;;;;;5094235;28;20076;-82
2022/01/07 06:41:51;;;;;;;11.63;6.53;;;3.10;99.90;;;;;;5096878;28;20486;-81
2022/01/07 06:44:17;;;;;;;8.93;6.33;;;3.00;99.90;;;;;;5097738;28;20068;-82
2022/01/07 06:46:43;;;;;;;11.67;7.30;;;3.10;99.90;;;;;;5097596;28;20032;-83
2022/01/07 06:49:09;;;;;;;10.57;7.07;;;3.10;99.90;;;;;;5096555;28;20088;-82
2022/01/07 06:51:34;;;;;;;9.77;6.40;;;3.00;99.90;;;;;;5097023;28;20051;-82
2022/01/07 06:54:00;;;;;;;8.10;6.73;;;3.10;99.90;;;;;;5079735;28;20044;-81
2022/01/07 06:56:25;;;;;;;9.50;6.57;;;2.90;99.90;;;;;;5096774;28;20036;-82
2022/01/07 06:58:51;;;;;;;10.47;6.73;;;3.10;99.90;;;;;;5096116;28;20085;-81
2022/01/07 07:01:17;;;;;;;9.53;6.90;;;3.00;99.90;;;;;;5096688;28;20032;-81
2022/01/07 07:03:42;;;;;;;13.33;8.70;;;3.00;99.90;;;;;;5096359;28;20036;-81
2022/01/07 07:06:11;;;;;;;10.33;6.50;;;3.10;99.90;;;;;;5097235;28;20498;-81
2022/01/07 07:08:36;;;;;;;9.60;6.73;;;3.40;99.90;;;;;;5079776;28;20059;-82
2022/01/07 07:11:02;;;;;;;8.97;6.27;;;3.10;99.90;;;;;;5096527;28;20066;-82
2022/01/07 07:13:28;;;;;;;9.30;6.77;;;3.10;99.90;;;;;;5080163;28;20044;-80
2022/01/07 07:15:53;;;;;;;9.17;6.50;;;3.20;99.90;;;;;;5110619;28;20012;-83
2022/01/07 07:18:19;;;;;;;12.43;8.33;;;3.10;99.90;;;;;;5116839;28;20075;-81
2022/01/07 07:20:44;;;;;;;9.83;7.10;;;3.20;99.90;;;;;;5099294;28;20039;-79
2022/01/07 07:23:10;;;;;;;9.00;7.03;;;3.10;99.90;;;;;;5116627;28;20036;-80
2022/01/07 07:25:36;;;;;;;10.17;6.37;;;3.20;99.90;;;;;;5115431;28;20042;-83
2022/01/07 07:28:01;;;;;;;11.77;6.80;;;3.40;99.90;;;;;;5097747;28;20061;-81
2022/01/07 07:30:37;;;;;;;12.83;6.67;;;3.20;99.90;;;;;;5115547;28;20039;-82
2022/01/07 07:33:29;;;;;;;11.90;8.25;;;3.20;99.90;;;;;;5115926;28;20058;-84
2022/01/07 07:39:09;;;;;;;10.03;6.97;;;3.30;99.90;;;;;;5056933;28;19916;-82
2022/01/07 07:41:36;;;;;;;10.37;7.23;;;3.30;99.90;;;;;;5100624;28;20036;-81
2022/01/07 07:44:03;;;;;;;13.60;8.40;;;3.20;99.90;;;;;;5100013;28;20203;-81
2022/01/07 07:46:31;;;;;;;10.27;6.80;;;3.30;99.90;;;;;;5083820;28;21237;-82
2022/01/07 07:49:00;;;;;;;8.95;6.78;;;3.30;99.90;;;;;;5081612;28;20121;-81
2022/01/07 07:51:25;;;;;;;13.23;8.77;;;3.30;99.90;;;;;;5099628;28;20036;-81
2022/01/07 07:53:51;;;;;;;10.77;8.27;;;3.50;99.90;;;;;;5081560;28;20039;-81
2022/01/07 07:56:17;;;;;;;12.47;8.63;;;3.50;99.90;;;;;;5099084;28;20483;-81
2022/01/07 07:58:43;;;;;;;11.82;9.43;;;3.40;99.90;;;;;;5079790;28;20068;-81
2022/01/07 08:01:09;;;;;;;13.80;9.30;;;3.50;99.90;;;;;;5096356;28;20057;-82
2022/01/07 08:03:35;;;;;;;18.77;10.60;;;3.40;99.90;;;;;;5095711;28;20119;-81
2022/01/07 08:06:02;;;;;;;13.60;9.65;;;3.50;99.90;;;;;;5080021;28;20051;-80
2022/01/07 08:08:28;;;;;;;16.17;9.55;;;3.50;99.90;;;;;;5096115;28;20114;-81
2022/01/07 08:10:55;;;;;;;13.00;10.05;;;3.60;99.90;;;;;;5080266;28;20099;-82
2022/01/07 08:13:29;;;;;;;16.93;10.93;;;3.60;99.90;;;;;;5079289;28;20039;-80
2022/01/07 08:16:02;;;;;;;16.65;11.32;;;3.50;99.90;;;;;;5097401;28;20305;-81
2022/01/07 08:18:37;;;;;;;17.25;11.32;;;3.50;99.90;;;;;;5093874;28;20043;-81
2022/01/07 08:21:02;;;;;;;21.65;12.75;;;3.60;99.90;;;;;;5095987;28;20039;-81
2022/01/07 08:23:28;;;;;;;19.13;12.32;;;3.60;99.90;;;;;;5097478;28;20081;-81
2022/01/07 08:25:53;;;;;;;16.90;11.57;;;3.60;99.90;;;;;;5096731;28;20061;-81
2022/01/07 08:28:22;;;;;;;17.85;11.13;;;3.70;99.90;;;;;;5081476;28;20036;-81
2022/01/07 08:36:12;;;;;;;18.73;11.60;;;3.80;99.90;;;;;;5096592;28;20406;-84
2022/01/07 08:38:37;;;;;;;17.40;11.80;;;3.80;99.90;;;;;;5099358;28;20032;-82
2022/01/07 08:41:03;;;;;;;17.63;11.13;;;3.80;99.90;;;;;;5101666;28;20035;-83
2022/01/07 08:43:28;;;;;;;19.38;12.02;;;3.90;99.90;;;;;;5101953;28;20498;-81
2022/01/07 08:45:54;;;;;;;17.75;13.05;;;3.90;99.90;;;;;;5099735;28;20058;-81
2022/01/07 08:48:19;;;;;;;19.30;11.00;;;3.80;99.90;;;;;;5099793;28;20051;-80
2022/01/07 08:50:45;;;;;;;17.65;12.55;;;3.80;99.90;;;;;;5099979;28;20081;-82
2022/01/07 08:53:11;;;;;;;20.05;13.65;;;4.00;99.90;;;;;;5095921;28;20519;-81
2022/01/07 08:55:37;;;;;;;21.77;13.02;;;4.00;99.90;;;;;;5096301;28;20538;-82
2022/01/07 08:58:03;;;;;;;21.45;14.32;;;4.00;99.90;;;;;;5096052;28;20119;-82
2022/01/07 09:00:30;;;;;;;18.27;14.18;;;3.90;99.90;;;;;;5096199;28;20032;-81
2022/01/07 09:02:55;;;;;;;17.65;13.38;;;3.90;99.90;;;;;;5095158;28;20552;-83
2022/01/07 09:05:21;;;;;;;21.20;13.73;;;3.90;99.90;;;;;;5095385;28;20024;-81
2022/01/07 09:07:47;;;;;;;21.27;13.93;;;4.00;99.90;;;;;;5096231;28;20599;-81
2022/01/07 09:10:12;;;;;;;24.65;15.88;;;4.10;99.90;;;;;;5081598;28;20048;-81
2022/01/07 09:12:38;;;;;;;21.20;14.20;;;4.20;99.90;;;;;;5096834;28;20035;-81
2022/01/07 09:15:04;;;;;;;20.23;13.57;;;4.10;99.90;;;;;;5098009;28;20064;-81
2022/01/07 09:17:30;;;;;;;21.58;14.23;;;4.20;99.90;;;;;;5097508;28;20038;-80
2022/01/07 09:19:55;;;;;;;27.98;15.40;;;4.40;99.90;;;;;;5098096;28;20515;-82
2022/01/07 09:22:21;;;;;;;24.23;14.40;;;4.30;99.90;;;;;;5097673;28;20039;-81
2022/01/07 09:24:47;;;;;;;20.52;14.80;;;4.40;99.90;;;;;;5098165;28;20043;-81
2022/01/07 09:27:12;;;;;;;21.27;13.50;;;4.40;99.90;;;;;;5080159;28;20047;-80
2022/01/07 09:29:38;;;;;;;23.80;15.13;;;4.60;99.90;;;;;;5097345;28;20639;-81
2022/01/07 09:32:04;;;;;;;23.10;14.85;;;4.60;99.90;;;;;;5086580;28;20032;-79
2022/01/07 09:34:30;;;;;;;21.98;14.90;;;4.50;99.90;;;;;;5086425;28;20040;-82
2022/01/07 09:36:55;;;;;;;24.35;14.85;;;4.50;99.90;;;;;;5106825;28;20062;-80
2022/01/07 09:39:21;;;;;;;20.80;13.02;;;4.70;99.90;;;;;;5103347;28;20066;-80
2022/01/07 09:41:47;;;;;;;24.63;15.30;;;4.60;99.90;;;;;;5106065;28;20047;-81
2022/01/07 09:44:13;;;;;;;21.45;12.20;;;4.70;99.90;;;;;;5104012;28;20039;-81
2022/01/07 09:46:40;;;;;;;19.00;14.02;;;4.60;99.90;;;;;;5106673;28;20081;-79
2022/01/07 09:49:06;;;;;;;22.48;13.68;;;4.80;99.90;;;;;;5086694;28;20062;-80
2022/01/07 09:51:32;;;;;;;21.33;15.18;;;5.20;99.90;;;;;;5103562;28;20086;-80
2022/01/07 09:54:02;;;;;;;21.92;12.55;;;5.00;99.90;;;;;;5098277;28;20040;-81
2022/01/07 09:56:28;;;;;;;22.63;14.23;;;5.20;99.90;;;;;;5079410;28;20032;-80
2022/01/07 09:58:54;;;;;;;21.20;13.40;;;5.10;99.90;;;;;;5091776;28;20042;-80
2022/01/07 10:01:21;;;;;;;24.63;14.15;;;5.10;99.90;;;;;;5091686;28;20035;-80
2022/01/07 10:03:46;;;;;;;17.95;12.50;;;5.00;99.90;;;;;;5095700;28;20079;-80
2022/01/07 10:06:18;;;;;;;23.27;13.95;;;5.00;99.90;;;;;;5096103;28;20065;-80
2022/01/07 10:08:44;;;;;;;25.73;15.02;;;5.00;99.90;;;;;;5091510;28;20042;-82
2022/01/07 10:11:19;;;;;;;23.23;15.63;;;5.00;99.90;;;;;;5099266;28;20032;-83
2022/01/07 10:14:18;;;;;;;26.38;16.63;;;5.00;99.90;;;;;;5082884;28;20093;-84
2022/01/07 10:16:53;;;;;;;28.50;18.33;;;4.90;99.90;;;;;;5087852;28;20032;-84
2022/01/07 10:19:49;;;;;;;29.45;17.83;;;4.90;99.90;;;;;;5074734;28;20119;-86
2022/01/07 10:22:16;;;;;;;22.98;15.70;;;4.90;99.90;;;;;;5062043;28;20454;-84
2022/01/07 10:24:59;;;;;;;29.92;17.15;;;4.90;99.90;;;;;;5090802;28;20036;-84
2022/01/07 10:27:27;;;;;;;31.90;17.98;;;5.00;99.90;;;;;;5090880;28;20036;-86
2022/01/07 10:29:53;;;;;;;30.05;16.25;;;4.90;99.90;;;;;;5090974;28;20040;-84
2022/01/07 10:32:23;;;;;;;32.55;18.48;;;4.90;99.90;;;;;;5073972;28;20039;-86
2022/01/07 10:35:18;;;;;;;25.27;17.60;;;4.90;99.90;;;;;;5090624;28;20043;-86
2022/01/07 10:37:49;;;;;;;28.95;17.90;;;4.90;99.90;;;;;;5073130;28;20028;-84
2022/01/07 10:40:33;;;;;;;21.13;14.10;;;5.00;99.90;;;;;;5090396;28;20032;-86
2022/01/07 10:43:24;;;;;;;19.88;13.70;;;5.20;99.90;;;;;;5087341;28;20540;-86
2022/01/07 10:46:08;;;;;;;15.43;8.27;;;5.10;99.90;;;;;;5072298;28;20036;-85
2022/01/07 10:48:40;;;;;;;14.05;8.38;;;5.10;99.90;;;;;;5073631;28;20032;-85
2022/01/07 10:51:11;;;;;;;11.07;8.15;;;5.10;99.90;;;;;;5076687;28;20036;-85
2022/01/07 10:53:40;;;;;;;14.38;7.45;;;5.10;99.90;;;;;;5078782;28;20101;-85
2022/01/07 10:56:06;;;;;;;10.85;5.40;;;5.10;99.90;;;;;;5077382;28;20052;-84
2022/01/07 10:58:55;;;;;;;11.45;7.18;;;4.90;99.90;;;;;;5077994;28;20052;-86
2022/01/07 11:01:21;;;;;;;13.52;7.55;;;4.90;99.90;;;;;;5082463;28;20048;-85
2022/01/07 11:03:47;;;;;;;12.10;6.70;;;4.90;99.90;;;;;;5077113;28;20062;-83
2022/01/07 11:06:13;;;;;;;10.45;7.28;;;4.90;99.90;;;;;;5094470;28;20036;-83
2022/01/07 11:08:40;;;;;;;16.38;9.52;;;4.80;99.90;;;;;;5077538;28;20036;-85
2022/01/07 11:11:06;;;;;;;13.95;8.77;;;4.80;99.90;;;;;;5095421;28;20103;-84
2022/01/07 11:13:34;;;;;;;16.25;9.32;;;4.80;99.90;;;;;;5086861;28;20040;-82
2022/01/07 11:16:00;;;;;;;16.33;9.07;;;4.80;99.90;;;;;;5083485;28;20073;-85
2022/01/07 11:18:25;;;;;;;10.00;6.97;;;5.10;99.90;;;;;;5101058;28;20024;-85
2022/01/07 11:20:51;;;;;;;15.48;6.20;;;5.40;99.90;;;;;;5084183;28;20067;-83
2022/01/07 11:23:17;;;;;;;10.65;6.13;;;5.60;99.90;;;;;;5111237;28;20410;-83
2022/01/07 11:25:43;;;;;;;10.82;5.25;;;5.70;99.90;;;;;;5091747;28;20028;-82
2022/01/07 11:28:17;;;;;;;13.07;5.63;;;5.60;99.90;;;;;;5085898;28;20097;-84
2022/01/07 11:30:47;;;;;;;7.82;3.42;;;5.50;99.90;;;;;;5077765;28;20032;-82
2022/01/07 11:33:19;;;;;;;11.80;3.88;;;5.40;99.90;;;;;;5094947;28;20032;-83
2022/01/07 11:35:46;;;;;;;4.70;2.78;;;5.40;99.90;;;;;;5078174;28;20028;-84
2022/01/07 11:38:30;;;;;;;7.07;3.42;;;5.30;99.90;;;;;;5094551;28;20047;-84
2022/01/07 11:40:55;;;;;;;9.43;4.00;;;5.30;99.90;;;;;;5076498;28;20115;-84
2022/01/07 11:43:21;;;;;;;7.45;3.75;;;5.60;99.90;;;;;;5077239;28;20121;-84
2022/01/07 11:45:47;;;;;;;10.50;4.43;;;5.90;99.90;;;;;;5094168;28;20040;-84
2022/01/07 11:48:15;;;;;;;6.88;5.32;;;6.00;99.90;;;;;;5077085;28;20124;-84
2022/01/07 11:50:54;;;;;;;7.10;5.65;;;6.00;99.90;;;;;;5076390;28;20112;-85
2022/01/07 11:53:20;;;;;;;13.10;7.43;;;5.80;99.90;;;;;;5074405;28;20036;-85
2022/01/07 11:55:46;;;;;;;12.27;7.10;;;5.70;99.90;;;;;;5076233;28;20051;-84
2022/01/07 11:58:13;;;;;;;12.60;7.95;;;5.60;99.90;;;;;;5076886;28;20034;-83
2022/01/07 12:00:59;;;;;;;15.27;8.75;;;5.50;99.90;;;;;;5092915;28;20137;-80
2022/01/07 12:03:40;;;;;;;14.60;8.38;;;5.40;99.90;;;;;;5091082;28;20425;-84
2022/01/07 12:06:23;;;;;;;13.45;9.63;;;5.30;99.90;;;;;;5073378;28;20032;-83
2022/01/07 12:09:05;;;;;;;15.55;10.13;;;5.30;99.90;;;;;;5075582;28;20040;-82
2022/01/07 12:11:36;;;;;;;17.67;11.25;;;5.30;99.90;;;;;;5076146;28;20405;-83
2022/01/07 12:14:06;;;;;;;17.92;11.27;;;5.20;99.90;;;;;;5093843;28;20101;-85
2022/01/07 12:16:33;;;;;;;58.10;34.40;;;5.20;99.90;;;;;;5075526;28;20541;-84
2022/01/07 12:19:18;;;;;;;65.93;37.95;;;5.20;99.90;;;;;;5075222;28;20038;-84
2022/01/07 12:21:46;;;;;;;21.88;13.98;;;5.20;99.90;;;;;;5075932;28;20043;-83
2022/01/07 12:24:20;;;;;;;28.17;19.30;;;5.30;99.90;;;;;;5077512;28;20122;-84
2022/01/07 12:26:46;;;;;;;26.77;15.00;;;5.30;99.90;;;;;;5076818;28;20055;-86
2022/01/07 12:29:20;;;;;;;14.90;8.60;;;5.30;99.90;;;;;;5094981;28;20051;-86
2022/01/07 12:32:13;;;;;;;23.35;9.43;;;5.30;99.90;;;;;;5113025;28;20038;-82
2022/01/07 12:34:53;;;;;;;14.63;9.20;;;5.40;99.90;;;;;;5105409;28;20051;-81
2022/01/07 12:41:00;;;;;;;14.50;6.45;;;5.80;99.90;;;;;;4977131;28;20124;-83
2022/01/07 12:43:33;;;;;;;10.93;6.53;;;6.50;99.90;;;;;;5015604;28;20136;-83
2022/01/07 12:46:04;;;;;;;5.43;4.20;;;6.70;99.90;;;;;;5056373;28;20044;-84
2022/01/07 12:48:42;;;;;;;4.95;2.50;;;6.60;99.90;;;;;;5075756;28;20105;-81
2022/01/07 12:51:08;;;;;;;3.53;1.77;;;6.40;99.90;;;;;;5091584;28;20035;-85
2022/01/07 12:53:34;;;;;;;4.68;1.45;;;6.40;99.90;;;;;;5091133;28;20139;-82
2022/01/07 12:56:21;;;;;;;3.08;0.85;;;6.40;99.90;;;;;;5112872;28;20062;-79
2022/01/07 12:59:41;;;;;;;1.35;0.30;;;6.40;99.90;;;;;;5095445;28;20043;-80
2022/01/07 13:02:28;;;;;;;3.78;0.50;;;6.30;99.90;;;;;;5072874;28;20054;-78